sensor_id;sensor_type;location;lat;lon;timestamp;pressure;altitude;pressure_sealevel;temperature;humidity
12247;BME280;6186;52.022;4.692;2023-09-12T00:00:50;101353.66;;;21.54;60.70
12247;BME280;6186;52.022;4.692;2023-09-12T00:03:20;101359.22;;;21.51;60.91
12247;BME280;6186;52.022;4.692;2023-09-12T00:05:55;101352.31;;;21.47;60.89
12247;BME280;6186;52.022;4.692;2023-09-12T00:08:21;101356.91;;;21.45;61.28
12247;BME280;6186;52.022;4.692;2023-09-12T00:10:46;101355.28;;;21.42;61.27
12247;BME280;6186;52.022;4.692;2023-09-12T00:13:11;101359.88;;;21.40;61.04
12247;BME280;6186;52.022;4.692;2023-09-12T00:15:37;101354.81;;;21.36;61.72
12247;BME280;6186;52.022;4.692;2023-09-12T00:18:02;101358.44;;;21.35;61.43
12247;BME280;6186;52.022;4.692;2023-09-12T00:20:28;101353.19;;;21.33;61.79
12247;BME280;6186;52.022;4.692;2023-09-12T00:22:53;101349.72;;;21.31;61.64
12247;BME280;6186;52.022;4.692;2023-09-12T00:25:18;101352.50;;;21.30;61.81
12247;BME280;6186;52.022;4.692;2023-09-12T00:27:43;101340.16;;;21.27;62.13
12247;BME280;6186;52.022;4.692;2023-09-12T00:30:09;101340.34;;;21.24;62.40
12247;BME280;6186;52.022;4.692;2023-09-12T00:32:34;101344.00;;;21.23;62.36
12247;BME280;6186;52.022;4.692;2023-09-12T00:34:59;101337.94;;;21.20;62.69
12247;BME280;6186;52.022;4.692;2023-09-12T00:37:24;101333.72;;;21.16;62.78
12247;BME280;6186;52.022;4.692;2023-09-12T00:39:50;101336.41;;;21.16;62.73
12247;BME280;6186;52.022;4.692;2023-09-12T00:42:15;101325.03;;;21.12;62.95
12247;BME280;6186;52.022;4.692;2023-09-12T00:44:40;101326.88;;;21.12;63.18
12247;BME280;6186;52.022;4.692;2023-09-12T00:47:06;101333.16;;;21.11;63.19
12247;BME280;6186;52.022;4.692;2023-09-12T00:49:32;101336.97;;;21.07;63.17
12247;BME280;6186;52.022;4.692;2023-09-12T00:51:58;101332.69;;;21.04;63.27
12247;BME280;6186;52.022;4.692;2023-09-12T00:54:24;101329.38;;;20.99;63.35
12247;BME280;6186;52.022;4.692;2023-09-12T00:56:49;101335.69;;;20.98;63.45
12247;BME280;6186;52.022;4.692;2023-09-12T00:59:16;101323.53;;;20.93;63.73
12247;BME280;6186;52.022;4.692;2023-09-12T01:01:42;101328.91;;;20.93;63.72
12247;BME280;6186;52.022;4.692;2023-09-12T01:04:08;101332.59;;;20.90;63.80
12247;BME280;6186;52.022;4.692;2023-09-12T01:06:34;101329.94;;;20.90;63.91
12247;BME280;6186;52.022;4.692;2023-09-12T01:09:00;101334.63;;;20.87;63.94
12247;BME280;6186;52.022;4.692;2023-09-12T01:11:26;101343.56;;;20.86;64.08
12247;BME280;6186;52.022;4.692;2023-09-12T01:13:51;101341.00;;;20.84;64.46
12247;BME280;6186;52.022;4.692;2023-09-12T01:16:17;101336.50;;;20.85;64.48
12247;BME280;6186;52.022;4.692;2023-09-12T01:18:42;101333.16;;;20.81;64.62
12247;BME280;6186;52.022;4.692;2023-09-12T01:21:15;101328.69;;;20.82;64.66
12247;BME280;6186;52.022;4.692;2023-09-12T01:26:59;101326.94;;;20.81;65.20
12247;BME280;6186;52.022;4.692;2023-09-12T01:29:30;101298.44;;;20.66;65.20
12247;BME280;6186;52.022;4.692;2023-09-12T01:31:55;101318.25;;;20.77;65.46
12247;BME280;6186;52.022;4.692;2023-09-12T01:34:21;101322.72;;;20.77;65.58
12247;BME280;6186;52.022;4.692;2023-09-12T01:36:46;101331.81;;;20.74;65.70
12247;BME280;6186;52.022;4.692;2023-09-12T01:39:11;101329.19;;;20.73;65.74
12247;BME280;6186;52.022;4.692;2023-09-12T01:41:40;101326.53;;;20.73;66.04
12247;BME280;6186;52.022;4.692;2023-09-12T01:44:09;101326.63;;;20.71;66.12
12247;BME280;6186;52.022;4.692;2023-09-12T01:46:36;101322.31;;;20.69;66.10
12247;BME280;6186;52.022;4.692;2023-09-12T01:49:03;101333.09;;;20.67;66.27
12247;BME280;6186;52.022;4.692;2023-09-12T01:51:30;101324.25;;;20.67;66.46
12247;BME280;6186;52.022;4.692;2023-09-12T01:53:55;101320.84;;;20.63;66.51
12247;BME280;6186;52.022;4.692;2023-09-12T01:56:21;101320.84;;;20.63;66.72
12247;BME280;6186;52.022;4.692;2023-09-12T01:58:47;101315.59;;;20.61;66.84
12247;BME280;6186;52.022;4.692;2023-09-12T02:01:12;101325.38;;;20.63;67.02
12247;BME280;6186;52.022;4.692;2023-09-12T02:03:37;101325.38;;;20.63;67.27
12247;BME280;6186;52.022;4.692;2023-09-12T02:06:03;101328.03;;;20.63;67.39
12247;BME280;6186;52.022;4.692;2023-09-12T02:08:28;101332.53;;;20.62;67.55
12247;BME280;6186;52.022;4.692;2023-09-12T02:10:54;101325.44;;;20.61;67.64
12247;BME280;6186;52.022;4.692;2023-09-12T02:13:19;101330.72;;;20.63;67.94
12247;BME280;6186;52.022;4.692;2023-09-12T02:15:44;101323.63;;;20.61;68.17
12247;BME280;6186;52.022;4.692;2023-09-12T02:18:10;101315.59;;;20.61;68.14
12247;BME280;6186;52.022;4.692;2023-09-12T02:20:38;101325.38;;;20.63;68.45
12247;BME280;6186;52.022;4.692;2023-09-12T02:23:03;101323.63;;;20.61;68.49
12247;BME280;6186;52.022;4.692;2023-09-12T02:25:29;101330.88;;;20.59;68.61
12247;BME280;6186;52.022;4.692;2023-09-12T02:27:54;101323.91;;;20.57;68.59
12247;BME280;6186;52.022;4.692;2023-09-12T02:30:19;101324.94;;;20.54;68.87
12247;BME280;6186;52.022;4.692;2023-09-12T02:32:44;101334.78;;;20.54;68.93
12247;BME280;6186;52.022;4.692;2023-09-12T02:35:10;101316.16;;;20.52;69.10
12247;BME280;6186;52.022;4.692;2023-09-12T02:37:35;101324.19;;;20.52;69.16
12247;BME280;6186;52.022;4.692;2023-09-12T02:40:00;101320.53;;;20.53;69.41
12247;BME280;6186;52.022;4.692;2023-09-12T02:42:26;101317.97;;;20.52;69.55
12247;BME280;6186;52.022;4.692;2023-09-12T02:44:51;101322.28;;;20.54;69.83
12247;BME280;6186;52.022;4.692;2023-09-12T02:47:16;101324.19;;;20.52;69.87
12247;BME280;6186;52.022;4.692;2023-09-12T02:49:42;101314.41;;;20.51;69.96
12247;BME280;6186;52.022;4.692;2023-09-12T02:52:07;101322.44;;;20.51;70.05
12247;BME280;6186;52.022;4.692;2023-09-12T02:54:32;101322.44;;;20.51;70.39
12247;BME280;6186;52.022;4.692;2023-09-12T02:56:57;101315.28;;;20.52;70.56
12247;BME280;6186;52.022;4.692;2023-09-12T02:59:22;101313.56;;;20.51;70.63
12247;BME280;6186;52.022;4.692;2023-09-12T03:01:48;101317.09;;;20.51;70.85
12247;BME280;6186;52.022;4.692;2023-09-12T03:04:13;101318.84;;;20.52;70.99
12247;BME280;6186;52.022;4.692;2023-09-12T03:06:38;101307.34;;;20.50;71.23
12247;BME280;6186;52.022;4.692;2023-09-12T03:09:03;101307.56;;;20.47;71.13
12247;BME280;6186;52.022;4.692;2023-09-12T03:11:28;101306.78;;;20.45;71.25
12247;BME280;6186;52.022;4.692;2023-09-12T03:13:54;101310.47;;;20.43;71.67
12247;BME280;6186;52.022;4.692;2023-09-12T03:16:19;101309.59;;;20.42;71.77
12247;BME280;6186;52.022;4.692;2023-09-12T03:18:44;101312.38;;;20.41;71.91
12247;BME280;6186;52.022;4.692;2023-09-12T03:21:09;101292.47;;;20.31;71.69
12247;BME280;6186;52.022;4.692;2023-09-12T03:23:34;101297.56;;;20.35;72.23
12247;BME280;6186;52.022;4.692;2023-09-12T03:26:02;101301.19;;;20.34;72.24
12247;BME280;6186;52.022;4.692;2023-09-12T03:28:27;101296.78;;;20.33;72.53
12247;BME280;6186;52.022;4.692;2023-09-12T03:31:03;101295.06;;;20.32;72.72
12247;BME280;6186;52.022;4.692;2023-09-12T03:33:28;101308.44;;;20.32;72.81
12247;BME280;6186;52.022;4.692;2023-09-12T03:35:54;101305.84;;;20.31;73.02
12247;BME280;6186;52.022;4.692;2023-09-12T03:38:19;101299.66;;;20.30;73.30
12247;BME280;6186;52.022;4.692;2023-09-12T03:40:44;101304.22;;;20.28;73.50
12247;BME280;6186;52.022;4.692;2023-09-12T03:43:09;101298.97;;;20.27;73.40
12247;BME280;6186;52.022;4.692;2023-09-12T03:45:34;101302.47;;;20.27;73.82
12247;BME280;6186;52.022;4.692;2023-09-12T03:48:00;101317.59;;;20.28;74.05
12247;BME280;6186;52.022;4.692;2023-09-12T03:50:25;101310.59;;;20.26;74.18
12247;BME280;6186;52.022;4.692;2023-09-12T03:52:50;101315.06;;;20.25;74.30
12247;BME280;6186;52.022;4.692;2023-09-12T03:55:15;101310.59;;;20.26;74.55
12247;BME280;6186;52.022;4.692;2023-09-12T03:57:41;101303.44;;;20.26;74.61
12247;BME280;6186;52.022;4.692;2023-09-12T04:00:06;101305.25;;;20.26;74.77
12247;BME280;6186;52.022;4.692;2023-09-12T04:02:32;101311.47;;;20.26;74.99
12247;BME280;6186;52.022;4.692;2023-09-12T04:04:57;101302.00;;;20.21;75.13
12247;BME280;6186;52.022;4.692;2023-09-12T04:07:22;101310.69;;;20.24;75.34
12247;BME280;6186;52.022;4.692;2023-09-12T04:09:47;101304.72;;;20.19;75.63
12247;BME280;6186;52.022;4.692;2023-09-12T04:12:13;101304.38;;;20.25;75.71
12247;BME280;6186;52.022;4.692;2023-09-12T04:14:38;101300.00;;;20.24;75.83
12247;BME280;6186;52.022;4.692;2023-09-12T04:17:03;101308.78;;;20.26;76.16
12247;BME280;6186;52.022;4.692;2023-09-12T04:19:30;101301.13;;;20.20;76.18
12247;BME280;6186;52.022;4.692;2023-09-12T04:21:55;101303.44;;;20.26;76.33
12247;BME280;6186;52.022;4.692;2023-09-12T04:24:21;101307.81;;;20.27;76.71
12247;BME280;6186;52.022;4.692;2023-09-12T04:26:46;101307.81;;;20.27;76.58
12247;BME280;6186;52.022;4.692;2023-09-12T04:29:11;101307.00;;;20.27;76.67
12247;BME280;6186;52.022;4.692;2023-09-12T04:31:36;101299.72;;;20.29;77.09
12247;BME280;6186;52.022;4.692;2023-09-12T04:34:02;101307.66;;;20.30;77.33
12247;BME280;6186;52.022;4.692;2023-09-12T04:36:27;101311.13;;;20.32;77.40
12247;BME280;6186;52.022;4.692;2023-09-12T04:38:52;101309.56;;;20.28;77.82
12247;BME280;6186;52.022;4.692;2023-09-12T04:41:17;101311.47;;;20.26;77.82
12247;BME280;6186;52.022;4.692;2023-09-12T04:43:43;101308.50;;;20.31;78.04
12247;BME280;6186;52.022;4.692;2023-09-12T04:46:09;101311.19;;;20.31;78.14
12247;BME280;6186;52.022;4.692;2023-09-12T04:48:34;101309.38;;;20.31;78.37
12247;BME280;6186;52.022;4.692;2023-09-12T04:50:59;101299.56;;;20.32;78.55
12247;BME280;6186;52.022;4.692;2023-09-12T04:53:24;101305.78;;;20.32;78.76
12247;BME280;6186;52.022;4.692;2023-09-12T04:55:52;101304.03;;;20.31;78.95
12247;BME280;6186;52.022;4.692;2023-09-12T04:58:18;101306.44;;;20.36;79.18
12247;BME280;6186;52.022;4.692;2023-09-12T05:00:43;101309.03;;;20.37;79.29
12247;BME280;6186;52.022;4.692;2023-09-12T05:03:08;101311.69;;;20.37;79.41
12247;BME280;6186;52.022;4.692;2023-09-12T05:05:36;101310.72;;;20.38;79.60
12247;BME280;6186;52.022;4.692;2023-09-12T05:08:02;101308.00;;;20.40;79.82
12247;BME280;6186;52.022;4.692;2023-09-12T05:10:27;101308.84;;;20.40;79.91
12247;BME280;6186;52.022;4.692;2023-09-12T05:12:52;101295.66;;;20.37;80.34
12247;BME280;6186;52.022;4.692;2023-09-12T05:15:18;101306.94;;;20.42;80.76
12247;BME280;6186;52.022;4.692;2023-09-12T05:17:43;101304.25;;;20.42;81.06
12247;BME280;6186;52.022;4.692;2023-09-12T05:20:09;101304.34;;;20.41;81.14
12247;BME280;6186;52.022;4.692;2023-09-12T05:22:34;101312.28;;;20.42;81.27
12247;BME280;6186;52.022;4.692;2023-09-12T05:24:59;101311.34;;;20.43;81.50
12247;BME280;6186;52.022;4.692;2023-09-12T05:27:25;101313.06;;;20.44;81.65
12247;BME280;6186;52.022;4.692;2023-09-12T05:29:50;101305.03;;;20.44;82.09
12247;BME280;6186;52.022;4.692;2023-09-12T05:32:15;101323.66;;;20.46;81.99
12247;BME280;6186;52.022;4.692;2023-09-12T05:34:40;101310.22;;;20.47;82.35
12247;BME280;6186;52.022;4.692;2023-09-12T05:37:06;101320.72;;;20.50;82.60
12247;BME280;6186;52.022;4.692;2023-09-12T05:39:31;101308.31;;;20.49;82.78
12247;BME280;6186;52.022;4.692;2023-09-12T05:41:56;101322.28;;;20.54;82.98
12247;BME280;6186;52.022;4.692;2023-09-12T05:44:21;101320.38;;;20.56;83.18
12247;BME280;6186;52.022;4.692;2023-09-12T05:46:47;101321.91;;;20.60;83.43
12247;BME280;6186;52.022;4.692;2023-09-12T05:49:13;101315.59;;;20.61;83.60
12247;BME280;6186;52.022;4.692;2023-09-12T05:51:39;101325.38;;;20.63;83.60
12247;BME280;6186;52.022;4.692;2023-09-12T05:54:04;101315.03;;;20.56;84.15
12247;BME280;6186;52.022;4.692;2023-09-12T05:56:29;101327.06;;;20.63;84.29
12247;BME280;6186;52.022;4.692;2023-09-12T05:58:55;101331.41;;;20.66;84.36
12247;BME280;6186;52.022;4.692;2023-09-12T06:01:20;101328.63;;;20.68;84.40
12247;BME280;6186;52.022;4.692;2023-09-12T06:03:45;101330.34;;;20.69;84.81
12247;BME280;6186;52.022;4.692;2023-09-12T06:06:10;101331.09;;;20.71;85.01
12247;BME280;6186;52.022;4.692;2023-09-12T06:08:36;101335.44;;;20.73;85.24
12247;BME280;6186;52.022;4.692;2023-09-12T06:11:01;101325.59;;;20.74;85.51
12247;BME280;6186;52.022;4.692;2023-09-12T06:13:26;101305.78;;;20.62;85.40
12247;BME280;6186;52.022;4.692;2023-09-12T06:15:51;101334.28;;;20.77;85.57
12247;BME280;6186;52.022;4.692;2023-09-12T06:18:16;101338.63;;;20.80;85.67
12247;BME280;6186;52.022;4.692;2023-09-12T06:20:42;101336.88;;;20.79;85.97
12247;BME280;6186;52.022;4.692;2023-09-12T06:23:07;101335.94;;;20.80;86.13
12247;BME280;6186;52.022;4.692;2023-09-12T06:25:32;101334.03;;;20.82;86.24
12247;BME280;6186;52.022;4.692;2023-09-12T06:27:57;101336.72;;;20.82;86.54
12247;BME280;6186;52.022;4.692;2023-09-12T06:30:22;101345.47;;;20.84;87.00
12247;BME280;6186;52.022;4.692;2023-09-12T06:32:48;101345.31;;;20.87;87.14
12247;BME280;6186;52.022;4.692;2023-09-12T06:35:13;101348.75;;;20.89;87.20
12247;BME280;6186;52.022;4.692;2023-09-12T06:37:38;101352.22;;;20.91;87.30
12247;BME280;6186;52.022;4.692;2023-09-12T06:40:04;101349.44;;;20.92;87.41
12247;BME280;6186;52.022;4.692;2023-09-12T06:42:29;101337.53;;;20.82;87.74
12247;BME280;6186;52.022;4.692;2023-09-12T06:44:54;101352.78;;;20.96;88.14
12247;BME280;6186;52.022;4.692;2023-09-12T06:47:19;101354.34;;;21.00;88.25
12247;BME280;6186;52.022;4.692;2023-09-12T06:49:45;101340.78;;;21.03;88.53
12247;BME280;6186;52.022;4.692;2023-09-12T06:52:10;101343.28;;;21.06;88.74
12247;BME280;6186;52.022;4.692;2023-09-12T06:54:35;101349.22;;;21.11;89.27
12247;BME280;6186;52.022;4.692;2023-09-12T06:57:00;101345.41;;;21.15;89.55
12247;BME280;6186;52.022;4.692;2023-09-12T06:59:25;101354.97;;;21.19;89.74
12247;BME280;6186;52.022;4.692;2023-09-12T07:01:51;101349.34;;;21.23;90.01
12247;BME280;6186;52.022;4.692;2023-09-12T07:04:16;101352.78;;;21.25;90.04
12247;BME280;6186;52.022;4.692;2023-09-12T07:06:41;101348.38;;;21.24;90.10
12247;BME280;6186;52.022;4.692;2023-09-12T07:09:07;101344.00;;;21.23;90.67
12247;BME280;6186;52.022;4.692;2023-09-12T07:11:33;101343.03;;;21.24;90.80
12247;BME280;6186;52.022;4.692;2023-09-12T07:13:58;101341.13;;;21.26;91.23
12247;BME280;6186;52.022;4.692;2023-09-12T07:16:23;101343.91;;;21.25;91.83
12247;BME280;6186;52.022;4.692;2023-09-12T07:18:49;101341.69;;;21.31;92.19
12247;BME280;6186;52.022;4.692;2023-09-12T07:21:14;101347.72;;;21.35;92.45
12247;BME280;6186;52.022;4.692;2023-09-12T07:23:39;101347.34;;;21.41;92.63
12247;BME280;6186;52.022;4.692;2023-09-12T07:26:04;101344.38;;;21.45;93.06
12247;BME280;6186;52.022;4.692;2023-09-12T07:28:30;101342.19;;;21.38;93.21
12247;BME280;6186;52.022;4.692;2023-09-12T07:30:56;101352.53;;;21.44;93.33
12247;BME280;6186;52.022;4.692;2023-09-12T07:33:21;101363.72;;;21.50;93.87
12247;BME280;6186;52.022;4.692;2023-09-12T07:35:48;101362.56;;;21.54;94.18
12247;BME280;6186;52.022;4.692;2023-09-12T07:38:13;101365.03;;;21.58;94.18
12247;BME280;6186;52.022;4.692;2023-09-12T07:40:39;101367.66;;;21.59;94.49
12247;BME280;6186;52.022;4.692;2023-09-12T07:43:04;101367.44;;;21.62;94.65
12247;BME280;6186;52.022;4.692;2023-09-12T07:45:29;101372.59;;;21.65;95.01
12247;BME280;6186;52.022;4.692;2023-09-12T07:47:54;101374.13;;;21.69;95.05
12247;BME280;6186;52.022;4.692;2023-09-12T07:50:20;101383.91;;;21.70;94.98
12247;BME280;6186;52.022;4.692;2023-09-12T07:52:45;101384.84;;;21.69;95.52
12247;BME280;6186;52.022;4.692;2023-09-12T07:55:10;101375.00;;;21.70;96.01
12247;BME280;6186;52.022;4.692;2023-09-12T07:57:35;101378.34;;;21.73;96.46
12247;BME280;6186;52.022;4.692;2023-09-12T08:00:01;101381.44;;;21.81;97.12
12247;BME280;6186;52.022;4.692;2023-09-12T08:02:26;101372.72;;;21.92;97.57
12247;BME280;6186;52.022;4.692;2023-09-12T08:04:52;101372.16;;;22.01;97.88
12247;BME280;6186;52.022;4.692;2023-09-12T08:07:17;101372.72;;;22.06;98.05
12247;BME280;6186;52.022;4.692;2023-09-12T08:09:53;101371.44;;;22.11;98.56
12247;BME280;6186;52.022;4.692;2023-09-12T08:12:20;101374.28;;;22.22;98.91
12247;BME280;6186;52.022;4.692;2023-09-12T08:14:46;101378.88;;;22.34;99.60
12247;BME280;6186;52.022;4.692;2023-09-12T08:17:12;101366.00;;;22.39;99.77
12247;BME280;6186;52.022;4.692;2023-09-12T08:19:39;101377.06;;;22.62;100.00
12247;BME280;6186;52.022;4.692;2023-09-12T08:22:05;101380.34;;;22.79;100.00
12247;BME280;6186;52.022;4.692;2023-09-12T08:24:30;101381.06;;;22.95;100.00
12247;BME280;6186;52.022;4.692;2023-09-12T08:26:56;101383.00;;;23.06;100.00
12247;BME280;6186;52.022;4.692;2023-09-12T08:29:21;101372.25;;;23.06;100.00
12247;BME280;6186;52.022;4.692;2023-09-12T08:31:46;101381.19;;;23.19;100.00
12247;BME280;6186;52.022;4.692;2023-09-12T08:34:11;101380.88;;;23.23;100.00
12247;BME280;6186;52.022;4.692;2023-09-12T08:36:37;101389.50;;;23.41;100.00
12247;BME280;6186;52.022;4.692;2023-09-12T08:39:02;101380.59;;;23.53;100.00
12247;BME280;6186;52.022;4.692;2023-09-12T08:41:27;101382.00;;;23.71;100.00
12247;BME280;6186;52.022;4.692;2023-09-12T08:43:53;101382.38;;;23.90;100.00
12247;BME280;6186;52.022;4.692;2023-09-12T08:46:20;101380.88;;;24.11;100.00
12247;BME280;6186;52.022;4.692;2023-09-12T08:48:46;101388.25;;;24.33;100.00
12247;BME280;6186;52.022;4.692;2023-09-12T08:51:13;101374.50;;;24.49;100.00
12247;BME280;6186;52.022;4.692;2023-09-12T08:53:38;101379.50;;;24.66;100.00
12247;BME280;6186;52.022;4.692;2023-09-12T08:56:04;101376.63;;;24.80;100.00
12247;BME280;6186;52.022;4.692;2023-09-12T08:58:32;101377.53;;;24.91;100.00
12247;BME280;6186;52.022;4.692;2023-09-12T09:00:57;101380.22;;;25.15;100.00
12247;BME280;6186;52.022;4.692;2023-09-12T09:03:24;101371.94;;;25.40;100.00
12247;BME280;6186;52.022;4.692;2023-09-12T09:05:51;101379.56;;;25.68;100.00
12247;BME280;6186;52.022;4.692;2023-09-12T09:08:17;101373.31;;;25.90;100.00
12247;BME280;6186;52.022;4.692;2023-09-12T09:10:59;101377.00;;;26.22;100.00
12247;BME280;6186;52.022;4.692;2023-09-12T09:13:25;101369.44;;;26.48;100.00
12247;BME280;6186;52.022;4.692;2023-09-12T09:16:15;101381.22;;;26.89;100.00
12247;BME280;6186;52.022;4.692;2023-09-12T09:18:58;101382.47;;;27.38;100.00
12247;BME280;6186;52.022;4.692;2023-09-12T09:21:30;101377.38;;;27.65;100.00
12247;BME280;6186;52.022;4.692;2023-09-12T09:23:56;101381.44;;;27.59;100.00
12247;BME280;6186;52.022;4.692;2023-09-12T09:26:21;101381.47;;;27.39;100.00
12247;BME280;6186;52.022;4.692;2023-09-12T09:29:06;101393.47;;;27.25;100.00
12247;BME280;6186;52.022;4.692;2023-09-12T09:31:33;101392.13;;;27.20;100.00
12247;BME280;6186;52.022;4.692;2023-09-12T09:33:59;101398.97;;;27.03;100.00
12247;BME280;6186;52.022;4.692;2023-09-12T09:36:24;101385.94;;;26.76;100.00
12247;BME280;6186;52.022;4.692;2023-09-12T09:38:50;101398.09;;;26.82;100.00
12247;BME280;6186;52.022;4.692;2023-09-12T09:41:15;101391.03;;;26.70;100.00
12247;BME280;6186;52.022;4.692;2023-09-12T09:43:40;101390.63;;;26.63;100.00
12247;BME280;6186;52.022;4.692;2023-09-12T09:46:15;101397.94;;;26.94;100.00
12247;BME280;6186;52.022;4.692;2023-09-12T09:48:49;101397.88;;;27.06;100.00
12247;BME280;6186;52.022;4.692;2023-09-12T09:51:14;101398.06;;;26.93;100.00
12247;BME280;6186;52.022;4.692;2023-09-12T09:53:39;101410.31;;;26.97;100.00
12247;BME280;6186;52.022;4.692;2023-09-12T09:58:32;101401.28;;;27.39;100.00
12247;BME280;6186;52.022;4.692;2023-09-12T10:00:58;101406.72;;;27.69;100.00
12247;BME280;6186;52.022;4.692;2023-09-12T10:03:24;101407.50;;;28.11;100.00
12247;BME280;6186;52.022;4.692;2023-09-12T10:05:50;101411.44;;;28.47;100.00
12247;BME280;6186;52.022;4.692;2023-09-12T10:08:17;101405.56;;;28.91;100.00
12247;BME280;6186;52.022;4.692;2023-09-12T10:10:45;101395.84;;;29.08;100.00
12247;BME280;6186;52.022;4.692;2023-09-12T10:13:11;101389.88;;;29.14;100.00
12247;BME280;6186;52.022;4.692;2023-09-12T10:15:38;101400.41;;;29.36;100.00
12247;BME280;6186;52.022;4.692;2023-09-12T10:18:08;101391.88;;;29.21;100.00
12247;BME280;6186;52.022;4.692;2023-09-12T10:20:38;101397.25;;;28.83;100.00
12247;BME280;6186;52.022;4.692;2023-09-12T10:23:13;101392.13;;;28.80;100.00
12247;BME280;6186;52.022;4.692;2023-09-12T10:25:43;101404.00;;;29.17;100.00
12247;BME280;6186;52.022;4.692;2023-09-12T10:28:10;101392.78;;;29.58;100.00
12247;BME280;6186;52.022;4.692;2023-09-12T10:30:36;101398.88;;;29.80;100.00
12247;BME280;6186;52.022;4.692;2023-09-12T10:33:03;101397.25;;;29.40;100.00
12247;BME280;6186;52.022;4.692;2023-09-12T10:35:31;101394.13;;;28.97;100.00
12247;BME280;6186;52.022;4.692;2023-09-12T10:37:59;101395.81;;;28.69;100.00
12247;BME280;6186;52.022;4.692;2023-09-12T10:40:26;101380.13;;;28.73;100.00
12247;BME280;6186;52.022;4.692;2023-09-12T10:42:55;101392.16;;;28.99;100.00
12247;BME280;6186;52.022;4.692;2023-09-12T10:45:21;101382.44;;;29.25;100.00
12247;BME280;6186;52.022;4.692;2023-09-12T10:47:46;101384.19;;;29.73;100.00
12247;BME280;6186;52.022;4.692;2023-09-12T10:50:11;101376.34;;;30.33;100.00
12247;BME280;6186;52.022;4.692;2023-09-12T10:52:38;101373.50;;;30.70;100.00
12247;BME280;6186;52.022;4.692;2023-09-12T10:55:04;101375.53;;;30.50;100.00
12247;BME280;6186;52.022;4.692;2023-09-12T10:57:29;101359.94;;;30.52;100.00
12247;BME280;6186;52.022;4.692;2023-09-12T11:02:33;101358.78;;;31.51;100.00
12247;BME280;6186;52.022;4.692;2023-09-12T11:05:00;101363.31;;;32.10;100.00
12247;BME280;6186;52.022;4.692;2023-09-12T11:07:32;101364.25;;;32.34;100.00
12247;BME280;6186;52.022;4.692;2023-09-12T11:10:19;101369.69;;;32.34;100.00
12247;BME280;6186;52.022;4.692;2023-09-12T11:12:49;101373.75;;;32.14;100.00
12247;BME280;6186;52.022;4.692;2023-09-12T11:15:14;101364.41;;;31.83;100.00
12247;BME280;6186;52.022;4.692;2023-09-12T11:18:05;101352.13;;;31.28;100.00
12247;BME280;6186;52.022;4.692;2023-09-12T11:23:14;101369.63;;;30.55;100.00
12247;BME280;6186;52.022;4.692;2023-09-12T11:25:39;101370.75;;;30.35;100.00
12247;BME280;6186;52.022;4.692;2023-09-12T11:28:05;101371.34;;;30.56;100.00
12247;BME280;6186;52.022;4.692;2023-09-12T11:30:31;101386.72;;;31.00;100.00
12247;BME280;6186;52.022;4.692;2023-09-12T11:32:57;101379.69;;;31.51;100.00
12247;BME280;6186;52.022;4.692;2023-09-12T11:35:24;101380.28;;;31.70;100.00
12247;BME280;6186;52.022;4.692;2023-09-12T11:37:51;101376.03;;;31.42;100.00
12247;BME280;6186;52.022;4.692;2023-09-12T11:40:23;101379.13;;;31.04;100.00
12247;BME280;6186;52.022;4.692;2023-09-12T11:42:49;101377.53;;;30.66;100.00
12247;BME280;6186;52.022;4.692;2023-09-12T11:45:18;101383.34;;;30.26;100.00
12247;BME280;6186;52.022;4.692;2023-09-12T11:47:44;101380.13;;;29.96;100.00
12247;BME280;6186;52.022;4.692;2023-09-12T11:50:29;101390.75;;;29.60;98.43
12247;BME280;6186;52.022;4.692;2023-09-12T11:53:09;101388.03;;;29.14;95.89
12247;BME280;6186;52.022;4.692;2023-09-12T11:55:42;101402.41;;;28.67;94.25
12247;BME280;6186;52.022;4.692;2023-09-12T11:58:07;101398.44;;;28.22;92.30
12247;BME280;6186;52.022;4.692;2023-09-12T12:00:33;101410.53;;;27.87;91.12
12247;BME280;6186;52.022;4.692;2023-09-12T12:02:58;101406.00;;;27.47;89.64
12247;BME280;6186;52.022;4.692;2023-09-12T12:05:23;101415.28;;;27.13;89.05
12247;BME280;6186;52.022;4.692;2023-09-12T12:07:49;101414.06;;;26.85;88.28
12247;BME280;6186;52.022;4.692;2023-09-12T12:10:16;101418.03;;;26.59;88.12
12247;BME280;6186;52.022;4.692;2023-09-12T12:12:44;101408.50;;;26.33;87.29
12247;BME280;6186;52.022;4.692;2023-09-12T12:15:10;101413.44;;;26.17;87.03
12247;BME280;6186;52.022;4.692;2023-09-12T12:17:35;101417.22;;;26.03;86.85
12247;BME280;6186;52.022;4.692;2023-09-12T12:20:00;101424.94;;;25.85;86.47
12247;BME280;6186;52.022;4.692;2023-09-12T12:22:26;101414.41;;;25.71;86.28
12247;BME280;6186;52.022;4.692;2023-09-12T12:24:51;101406.31;;;25.60;86.23
12247;BME280;6186;52.022;4.692;2023-09-12T12:27:16;101403.81;;;25.57;86.80
12247;BME280;6186;52.022;4.692;2023-09-12T12:29:41;101385.47;;;25.62;87.68
12247;BME280;6186;52.022;4.692;2023-09-12T12:32:07;101369.91;;;25.66;88.86
12247;BME280;6186;52.022;4.692;2023-09-12T12:34:32;101369.41;;;25.94;90.45
12247;BME280;6186;52.022;4.692;2023-09-12T12:36:57;101381.94;;;26.17;90.28
12247;BME280;6186;52.022;4.692;2023-09-12T12:39:23;101374.56;;;26.19;89.92
12247;BME280;6186;52.022;4.692;2023-09-12T12:41:52;101372.19;;;26.26;90.16
12247;BME280;6186;52.022;4.692;2023-09-12T12:44:18;101376.50;;;26.28;90.10
12247;BME280;6186;52.022;4.692;2023-09-12T12:46:53;101383.75;;;26.28;89.83
12247;BME280;6186;52.022;4.692;2023-09-12T12:49:19;101387.91;;;26.32;90.36
12247;BME280;6186;52.022;4.692;2023-09-12T12:51:46;101382.03;;;26.27;89.92
12247;BME280;6186;52.022;4.692;2023-09-12T12:54:12;101384.22;;;26.22;89.02
12247;BME280;6186;52.022;4.692;2023-09-12T12:56:38;101387.22;;;26.08;88.19
12247;BME280;6186;52.022;4.692;2023-09-12T12:59:05;101377.84;;;26.00;88.33
12247;BME280;6186;52.022;4.692;2023-09-12T13:01:31;101377.63;;;25.92;88.46
12247;BME280;6186;52.022;4.692;2023-09-12T13:03:56;101386.69;;;25.91;88.44